CheckWX is a tool to help pilots better visualize weather data.  It is not intended as a substitute for an official pre-flight weather briefing.

08:11:09 UTC

KHSP METAR
Ingalls Field Airport
Hot Springs, Virginia, USA
Current

16 mins ago

KHSP 220755Z AUTO 31005KT 10SM DZ OVC070 05/05 A3019 RMK AO2 P0001 T00450045
Observed
Feb-22 @ 07:55 UTC
Wind
  • 310° at 5 KTS
Visibility
10 SM
Flight Rules
VFR
Conditions
Drizzle
Cloud Levels
  • Overcast at 7,000' AGL
Temperature
C / 41°F
Dewpoint
C / 41°F
Humidity
100%
Altimeter
30.19" Hg
Pressure
1022.32 hPa
Current Rain
0.01"
Previous

36 mins ago

KHSP 220735Z AUTO 30006KT 10SM DZ OVC070 03/03 A3020 RMK AO2 T00340034
Observed
Feb-22 @ 07:35 UTC
Wind
  • 300° at 6 KTS
Visibility
10 SM
Flight Rules
VFR
Conditions
Drizzle
Cloud Levels
  • Overcast at 7,000' AGL
Temperature
C / 37°F
Dewpoint
C / 37°F
Humidity
100%
Altimeter
30.2" Hg
Pressure
1022.72 hPa
Previous

56 mins ago

KHSP 220715Z AUTO 30006KT 10SM -RA OVC070 04/04 A3020 RMK AO2 T00430043
Observed
Feb-22 @ 07:15 UTC
Wind
  • 300° at 6 KTS
Visibility
10 SM
Flight Rules
VFR
Conditions
Light Rain
Cloud Levels
  • Overcast at 7,000' AGL
Temperature
C / 39°F
Dewpoint
C / 39°F
Humidity
100%
Altimeter
30.2" Hg
Pressure
1022.72 hPa